Terminal Aerodrome Forecast
Issued by NWS Bismarck, ND

Home | Current Version | Previous Version | Graphics & Text | Print | Product List | Glossary On
Versions: 1 2 3 4 5 6 7 8 9 10 11 12 13 14 15 16 17 18 19 20 21 22 23 24
000
FTUS43 KBIS 240400 AAB
TAFISN
TAF AMD
KISN 240407Z 2404/2424 11013KT P6SM BKN080
     FM240800 11013KT P6SM VCTS BKN080CB
      TEMPO 2409/2411 VRB15G25KT 4SM -TSRA BKN060CB
     FM241100 12012KT P6SM SCT250
     FM242300 15010KT P6SM BKN170=

USA.gov is the U.S. government's official web portal to all federal, state and local government web resources and services.